sensor_id;sensor_type;location;lat;lon;timestamp;P1;durP1;ratioP1;P2;durP2;ratioP2
10839;SDS011;5473;42.706;23.328;2022-08-01T00:01:40;0.20;;;0.20;;
10839;SDS011;5473;42.706;23.328;2022-08-01T00:04:07;0.20;;;0.20;;
10839;SDS011;5473;42.706;23.328;2022-08-01T00:06:35;0.20;;;0.20;;
10839;SDS011;5473;42.706;23.328;2022-08-01T00:09:02;0.20;;;0.20;;
10839;SDS011;5473;42.706;23.328;2022-08-01T00:11:28;0.20;;;0.20;;
10839;SDS011;5473;42.706;23.328;2022-08-01T00:13:55;0.20;;;0.20;;
10839;SDS011;5473;42.706;23.328;2022-08-01T00:16:22;0.20;;;0.20;;
10839;SDS011;5473;42.706;23.328;2022-08-01T00:18:49;0.20;;;0.20;;
10839;SDS011;5473;42.706;23.328;2022-08-01T00:21:16;0.20;;;0.20;;
10839;SDS011;5473;42.706;23.328;2022-08-01T00:23:44;0.20;;;0.20;;
10839;SDS011;5473;42.706;23.328;2022-08-01T00:26:12;0.23;;;0.23;;
10839;SDS011;5473;42.706;23.328;2022-08-01T00:28:39;0.20;;;0.20;;
10839;SDS011;5473;42.706;23.328;2022-08-01T00:31:06;0.20;;;0.20;;
10839;SDS011;5473;42.706;23.328;2022-08-01T00:33:33;0.20;;;0.20;;
10839;SDS011;5473;42.706;23.328;2022-08-01T00:36:00;0.30;;;0.30;;
10839;SDS011;5473;42.706;23.328;2022-08-01T00:38:27;0.30;;;0.30;;
10839;SDS011;5473;42.706;23.328;2022-08-01T00:40:55;0.30;;;0.30;;
10839;SDS011;5473;42.706;23.328;2022-08-01T00:43:22;0.30;;;0.30;;
10839;SDS011;5473;42.706;23.328;2022-08-01T00:45:49;0.30;;;0.30;;
10839;SDS011;5473;42.706;23.328;2022-08-01T00:48:16;0.27;;;0.27;;
10839;SDS011;5473;42.706;23.328;2022-08-01T00:50:43;0.30;;;0.30;;
10839;SDS011;5473;42.706;23.328;2022-08-01T00:53:10;0.30;;;0.30;;
10839;SDS011;5473;42.706;23.328;2022-08-01T00:55:37;0.20;;;0.20;;
10839;SDS011;5473;42.706;23.328;2022-08-01T00:58:05;0.20;;;0.20;;
10839;SDS011;5473;42.706;23.328;2022-08-01T01:00:33;0.23;;;0.23;;
10839;SDS011;5473;42.706;23.328;2022-08-01T01:03:00;0.27;;;0.27;;
10839;SDS011;5473;42.706;23.328;2022-08-01T01:05:27;0.20;;;0.20;;
10839;SDS011;5473;42.706;23.328;2022-08-01T01:07:56;0.30;;;0.30;;
10839;SDS011;5473;42.706;23.328;2022-08-01T01:10:30;0.20;;;0.20;;
10839;SDS011;5473;42.706;23.328;2022-08-01T01:13:05;0.20;;;0.20;;
10839;SDS011;5473;42.706;23.328;2022-08-01T01:15:36;0.30;;;0.30;;
10839;SDS011;5473;42.706;23.328;2022-08-01T01:18:09;0.30;;;0.30;;
10839;SDS011;5473;42.706;23.328;2022-08-01T01:20:40;0.27;;;0.27;;
10839;SDS011;5473;42.706;23.328;2022-08-01T01:23:24;0.30;;;0.30;;
10839;SDS011;5473;42.706;23.328;2022-08-01T01:26:10;0.30;;;0.30;;
10839;SDS011;5473;42.706;23.328;2022-08-01T01:28:58;0.30;;;0.30;;
10839;SDS011;5473;42.706;23.328;2022-08-01T01:31:28;0.23;;;0.23;;
10839;SDS011;5473;42.706;23.328;2022-08-01T01:33:59;0.27;;;0.27;;
10839;SDS011;5473;42.706;23.328;2022-08-01T01:36:29;0.20;;;0.20;;
10839;SDS011;5473;42.706;23.328;2022-08-01T01:38:58;0.30;;;0.30;;
10839;SDS011;5473;42.706;23.328;2022-08-01T01:41:26;0.30;;;0.30;;
10839;SDS011;5473;42.706;23.328;2022-08-01T01:43:54;0.30;;;0.30;;
10839;SDS011;5473;42.706;23.328;2022-08-01T01:46:24;0.30;;;0.30;;
10839;SDS011;5473;42.706;23.328;2022-08-01T01:48:53;0.20;;;0.20;;
10839;SDS011;5473;42.706;23.328;2022-08-01T01:51:22;0.27;;;0.27;;
10839;SDS011;5473;42.706;23.328;2022-08-01T01:53:50;0.30;;;0.30;;
10839;SDS011;5473;42.706;23.328;2022-08-01T01:56:19;0.20;;;0.20;;
10839;SDS011;5473;42.706;23.328;2022-08-01T01:58:48;0.23;;;0.23;;
10839;SDS011;5473;42.706;23.328;2022-08-01T02:01:17;0.30;;;0.30;;
10839;SDS011;5473;42.706;23.328;2022-08-01T02:03:47;0.30;;;0.30;;
10839;SDS011;5473;42.706;23.328;2022-08-01T02:06:16;0.30;;;0.30;;
10839;SDS011;5473;42.706;23.328;2022-08-01T02:08:43;0.30;;;0.30;;
10839;SDS011;5473;42.706;23.328;2022-08-01T02:11:13;0.30;;;0.30;;
10839;SDS011;5473;42.706;23.328;2022-08-01T02:13:47;0.30;;;0.30;;
10839;SDS011;5473;42.706;23.328;2022-08-01T02:16:18;0.23;;;0.23;;
10839;SDS011;5473;42.706;23.328;2022-08-01T02:18:48;0.30;;;0.30;;
10839;SDS011;5473;42.706;23.328;2022-08-01T02:21:16;0.20;;;0.20;;
10839;SDS011;5473;42.706;23.328;2022-08-01T02:23:48;0.30;;;0.30;;
10839;SDS011;5473;42.706;23.328;2022-08-01T02:26:16;0.20;;;0.20;;
10839;SDS011;5473;42.706;23.328;2022-08-01T02:28:46;0.30;;;0.30;;
10839;SDS011;5473;42.706;23.328;2022-08-01T02:31:16;0.30;;;0.30;;
10839;SDS011;5473;42.706;23.328;2022-08-01T02:33:52;0.30;;;0.30;;
10839;SDS011;5473;42.706;23.328;2022-08-01T02:36:23;0.30;;;0.30;;
10839;SDS011;5473;42.706;23.328;2022-08-01T02:38:52;0.30;;;0.30;;
10839;SDS011;5473;42.706;23.328;2022-08-01T02:41:22;0.30;;;0.30;;
10839;SDS011;5473;42.706;23.328;2022-08-01T02:43:51;0.30;;;0.30;;
10839;SDS011;5473;42.706;23.328;2022-08-01T02:46:24;0.30;;;0.30;;
10839;SDS011;5473;42.706;23.328;2022-08-01T02:48:56;0.30;;;0.30;;
10839;SDS011;5473;42.706;23.328;2022-08-01T02:51:26;0.30;;;0.30;;
10839;SDS011;5473;42.706;23.328;2022-08-01T02:53:56;0.27;;;0.27;;
10839;SDS011;5473;42.706;23.328;2022-08-01T02:56:25;0.27;;;0.27;;
10839;SDS011;5473;42.706;23.328;2022-08-01T02:59:00;0.30;;;0.30;;
10839;SDS011;5473;42.706;23.328;2022-08-01T03:01:29;0.30;;;0.30;;
10839;SDS011;5473;42.706;23.328;2022-08-01T03:03:59;0.30;;;0.30;;
10839;SDS011;5473;42.706;23.328;2022-08-01T03:06:26;0.30;;;0.30;;
10839;SDS011;5473;42.706;23.328;2022-08-01T03:08:54;0.30;;;0.30;;
10839;SDS011;5473;42.706;23.328;2022-08-01T03:11:23;0.30;;;0.30;;
10839;SDS011;5473;42.706;23.328;2022-08-01T03:13:53;0.30;;;0.30;;
10839;SDS011;5473;42.706;23.328;2022-08-01T03:16:21;0.40;;;0.40;;
10839;SDS011;5473;42.706;23.328;2022-08-01T03:18:51;0.23;;;0.23;;
10839;SDS011;5473;42.706;23.328;2022-08-01T03:21:23;0.30;;;0.30;;
10839;SDS011;5473;42.706;23.328;2022-08-01T03:23:50;0.30;;;0.30;;
10839;SDS011;5473;42.706;23.328;2022-08-01T03:26:22;0.30;;;0.30;;
10839;SDS011;5473;42.706;23.328;2022-08-01T03:28:52;0.30;;;0.30;;
10839;SDS011;5473;42.706;23.328;2022-08-01T03:31:23;0.30;;;0.30;;
10839;SDS011;5473;42.706;23.328;2022-08-01T03:33:51;0.30;;;0.30;;
10839;SDS011;5473;42.706;23.328;2022-08-01T03:36:18;0.30;;;0.30;;
10839;SDS011;5473;42.706;23.328;2022-08-01T03:38:50;0.30;;;0.30;;
10839;SDS011;5473;42.706;23.328;2022-08-01T03:41:21;0.30;;;0.30;;
10839;SDS011;5473;42.706;23.328;2022-08-01T03:43:52;0.30;;;0.30;;
10839;SDS011;5473;42.706;23.328;2022-08-01T03:46:26;0.30;;;0.30;;
10839;SDS011;5473;42.706;23.328;2022-08-01T03:48:58;0.30;;;0.30;;
10839;SDS011;5473;42.706;23.328;2022-08-01T03:51:29;0.30;;;0.30;;
10839;SDS011;5473;42.706;23.328;2022-08-01T03:54:00;0.30;;;0.30;;
10839;SDS011;5473;42.706;23.328;2022-08-01T03:56:27;0.30;;;0.30;;
10839;SDS011;5473;42.706;23.328;2022-08-01T03:58:57;0.30;;;0.30;;
10839;SDS011;5473;42.706;23.328;2022-08-01T04:01:25;0.30;;;0.30;;
10839;SDS011;5473;42.706;23.328;2022-08-01T04:03:54;0.20;;;0.20;;
10839;SDS011;5473;42.706;23.328;2022-08-01T04:06:21;0.30;;;0.30;;
10839;SDS011;5473;42.706;23.328;2022-08-01T04:08:48;0.30;;;0.30;;
10839;SDS011;5473;42.706;23.328;2022-08-01T04:14:29;0.23;;;0.23;;
10839;SDS011;5473;42.706;23.328;2022-08-01T04:16:56;0.20;;;0.20;;
10839;SDS011;5473;42.706;23.328;2022-08-01T04:19:23;0.30;;;0.30;;
10839;SDS011;5473;42.706;23.328;2022-08-01T04:21:51;0.30;;;0.30;;
10839;SDS011;5473;42.706;23.328;2022-08-01T04:24:18;0.30;;;0.30;;
10839;SDS011;5473;42.706;23.328;2022-08-01T04:26:48;0.23;;;0.23;;
10839;SDS011;5473;42.706;23.328;2022-08-01T04:29:17;0.23;;;0.23;;
10839;SDS011;5473;42.706;23.328;2022-08-01T04:31:48;0.30;;;0.30;;
10839;SDS011;5473;42.706;23.328;2022-08-01T04:34:17;0.30;;;0.30;;
10839;SDS011;5473;42.706;23.328;2022-08-01T04:36:46;0.20;;;0.20;;
10839;SDS011;5473;42.706;23.328;2022-08-01T04:39:14;0.20;;;0.20;;
10839;SDS011;5473;42.706;23.328;2022-08-01T04:41:45;0.20;;;0.20;;
10839;SDS011;5473;42.706;23.328;2022-08-01T04:44:13;0.20;;;0.20;;
10839;SDS011;5473;42.706;23.328;2022-08-01T04:46:40;0.20;;;0.20;;
10839;SDS011;5473;42.706;23.328;2022-08-01T04:49:09;0.20;;;0.20;;
10839;SDS011;5473;42.706;23.328;2022-08-01T04:51:48;0.20;;;0.20;;
10839;SDS011;5473;42.706;23.328;2022-08-01T04:54:16;0.20;;;0.20;;
10839;SDS011;5473;42.706;23.328;2022-08-01T04:56:43;0.20;;;0.20;;
10839;SDS011;5473;42.706;23.328;2022-08-01T04:59:11;0.20;;;0.20;;
10839;SDS011;5473;42.706;23.328;2022-08-01T05:01:54;0.20;;;0.20;;
10839;SDS011;5473;42.706;23.328;2022-08-01T05:04:23;0.20;;;0.20;;
10839;SDS011;5473;42.706;23.328;2022-08-01T05:06:49;0.20;;;0.20;;
10839;SDS011;5473;42.706;23.328;2022-08-01T05:09:16;0.20;;;0.20;;
10839;SDS011;5473;42.706;23.328;2022-08-01T05:11:43;0.20;;;0.20;;
10839;SDS011;5473;42.706;23.328;2022-08-01T05:14:10;0.20;;;0.20;;
10839;SDS011;5473;42.706;23.328;2022-08-01T05:16:37;0.20;;;0.20;;
10839;SDS011;5473;42.706;23.328;2022-08-01T05:19:03;0.20;;;0.20;;
10839;SDS011;5473;42.706;23.328;2022-08-01T05:21:32;0.20;;;0.20;;
10839;SDS011;5473;42.706;23.328;2022-08-01T05:23:58;0.17;;;0.17;;
10839;SDS011;5473;42.706;23.328;2022-08-01T05:26:25;0.20;;;0.20;;
10839;SDS011;5473;42.706;23.328;2022-08-01T05:28:52;0.20;;;0.20;;
10839;SDS011;5473;42.706;23.328;2022-08-01T05:31:19;0.20;;;0.20;;
10839;SDS011;5473;42.706;23.328;2022-08-01T05:33:46;0.20;;;0.20;;
10839;SDS011;5473;42.706;23.328;2022-08-01T05:36:12;0.10;;;0.10;;
10839;SDS011;5473;42.706;23.328;2022-08-01T05:38:40;0.10;;;0.10;;
10839;SDS011;5473;42.706;23.328;2022-08-01T05:41:07;0.10;;;0.10;;
10839;SDS011;5473;42.706;23.328;2022-08-01T05:43:34;0.20;;;0.20;;
10839;SDS011;5473;42.706;23.328;2022-08-01T05:46:01;0.20;;;0.20;;
10839;SDS011;5473;42.706;23.328;2022-08-01T05:48:28;0.20;;;0.20;;
10839;SDS011;5473;42.706;23.328;2022-08-01T05:50:55;0.20;;;0.20;;
10839;SDS011;5473;42.706;23.328;2022-08-01T05:53:22;0.20;;;0.20;;
10839;SDS011;5473;42.706;23.328;2022-08-01T05:55:50;0.20;;;0.20;;
10839;SDS011;5473;42.706;23.328;2022-08-01T05:58:17;0.10;;;0.10;;
10839;SDS011;5473;42.706;23.328;2022-08-01T06:00:44;0.10;;;0.10;;
10839;SDS011;5473;42.706;23.328;2022-08-01T06:03:11;0.10;;;0.10;;
10839;SDS011;5473;42.706;23.328;2022-08-01T06:05:39;0.10;;;0.10;;
10839;SDS011;5473;42.706;23.328;2022-08-01T06:08:06;0.10;;;0.10;;
10839;SDS011;5473;42.706;23.328;2022-08-01T06:10:33;0.10;;;0.10;;
10839;SDS011;5473;42.706;23.328;2022-08-01T06:13:01;0.10;;;0.10;;
10839;SDS011;5473;42.706;23.328;2022-08-01T06:15:28;0.10;;;0.10;;
10839;SDS011;5473;42.706;23.328;2022-08-01T06:17:58;0.10;;;0.10;;
10839;SDS011;5473;42.706;23.328;2022-08-01T06:20:25;0.10;;;0.10;;
10839;SDS011;5473;42.706;23.328;2022-08-01T06:22:51;0.10;;;0.10;;
10839;SDS011;5473;42.706;23.328;2022-08-01T06:25:19;0.10;;;0.10;;
10839;SDS011;5473;42.706;23.328;2022-08-01T06:27:46;0.00;;;0.00;;
10839;SDS011;5473;42.706;23.328;2022-08-01T06:30:15;0.10;;;0.10;;
10839;SDS011;5473;42.706;23.328;2022-08-01T06:32:41;0.10;;;0.10;;
10839;SDS011;5473;42.706;23.328;2022-08-01T06:35:08;0.00;;;0.00;;
10839;SDS011;5473;42.706;23.328;2022-08-01T06:37:35;0.00;;;0.00;;
10839;SDS011;5473;42.706;23.328;2022-08-01T06:40:02;0.00;;;0.00;;
10839;SDS011;5473;42.706;23.328;2022-08-01T06:42:30;0.00;;;0.00;;
10839;SDS011;5473;42.706;23.328;2022-08-01T06:45:00;0.00;;;0.00;;
10839;SDS011;5473;42.706;23.328;2022-08-01T06:47:28;0.00;;;0.00;;
10839;SDS011;5473;42.706;23.328;2022-08-01T06:49:55;0.10;;;0.10;;
10839;SDS011;5473;42.706;23.328;2022-08-01T06:52:22;0.00;;;0.00;;
10839;SDS011;5473;42.706;23.328;2022-08-01T06:54:49;0.10;;;0.10;;
10839;SDS011;5473;42.706;23.328;2022-08-01T06:57:16;0.10;;;0.10;;
10839;SDS011;5473;42.706;23.328;2022-08-01T06:59:43;0.00;;;0.00;;
10839;SDS011;5473;42.706;23.328;2022-08-01T07:02:10;0.00;;;0.00;;
10839;SDS011;5473;42.706;23.328;2022-08-01T07:04:38;0.00;;;0.00;;
10839;SDS011;5473;42.706;23.328;2022-08-01T07:07:05;0.00;;;0.00;;
10839;SDS011;5473;42.706;23.328;2022-08-01T07:09:32;0.00;;;0.00;;
10839;SDS011;5473;42.706;23.328;2022-08-01T07:11:59;0.00;;;0.00;;
10839;SDS011;5473;42.706;23.328;2022-08-01T07:14:26;0.00;;;0.00;;
10839;SDS011;5473;42.706;23.328;2022-08-01T07:16:52;0.00;;;0.00;;
10839;SDS011;5473;42.706;23.328;2022-08-01T07:19:19;0.00;;;0.00;;
10839;SDS011;5473;42.706;23.328;2022-08-01T07:21:48;0.00;;;0.00;;
10839;SDS011;5473;42.706;23.328;2022-08-01T07:24:15;0.00;;;0.00;;
10839;SDS011;5473;42.706;23.328;2022-08-01T07:26:42;0.00;;;0.00;;
10839;SDS011;5473;42.706;23.328;2022-08-01T07:29:10;0.00;;;0.00;;
10839;SDS011;5473;42.706;23.328;2022-08-01T07:31:37;0.05;;;0.05;;
10839;SDS011;5473;42.706;23.328;2022-08-01T07:34:04;0.10;;;0.10;;
10839;SDS011;5473;42.706;23.328;2022-08-01T07:36:31;0.05;;;0.05;;
10839;SDS011;5473;42.706;23.328;2022-08-01T07:38:59;0.10;;;0.10;;
10839;SDS011;5473;42.706;23.328;2022-08-01T07:41:26;0.00;;;0.00;;
10839;SDS011;5473;42.706;23.328;2022-08-01T07:43:53;0.00;;;0.00;;
10839;SDS011;5473;42.706;23.328;2022-08-01T07:46:20;0.00;;;0.00;;
10839;SDS011;5473;42.706;23.328;2022-08-01T07:48:47;0.00;;;0.00;;
10839;SDS011;5473;42.706;23.328;2022-08-01T07:51:14;0.00;;;0.00;;
10839;SDS011;5473;42.706;23.328;2022-08-01T07:53:40;0.08;;;0.08;;
10839;SDS011;5473;42.706;23.328;2022-08-01T07:56:09;0.00;;;0.00;;
10839;SDS011;5473;42.706;23.328;2022-08-01T07:58:35;0.00;;;0.00;;
10839;SDS011;5473;42.706;23.328;2022-08-01T08:01:02;0.00;;;0.00;;
10839;SDS011;5473;42.706;23.328;2022-08-01T08:03:29;0.00;;;0.00;;
10839;SDS011;5473;42.706;23.328;2022-08-01T08:05:56;0.00;;;0.00;;
10839;SDS011;5473;42.706;23.328;2022-08-01T08:08:23;0.00;;;0.00;;
10839;SDS011;5473;42.706;23.328;2022-08-01T08:10:50;0.00;;;0.00;;
10839;SDS011;5473;42.706;23.328;2022-08-01T08:13:18;0.00;;;0.00;;
10839;SDS011;5473;42.706;23.328;2022-08-01T08:15:45;0.00;;;0.00;;
10839;SDS011;5473;42.706;23.328;2022-08-01T08:18:12;0.00;;;0.00;;
10839;SDS011;5473;42.706;23.328;2022-08-01T08:20:39;0.00;;;0.00;;
10839;SDS011;5473;42.706;23.328;2022-08-01T08:23:05;0.00;;;0.00;;
10839;SDS011;5473;42.706;23.328;2022-08-01T08:25:52;0.00;;;0.00;;
10839;SDS011;5473;42.706;23.328;2022-08-01T08:28:21;0.00;;;0.00;;
10839;SDS011;5473;42.706;23.328;2022-08-01T08:30:47;0.00;;;0.00;;
10839;SDS011;5473;42.706;23.328;2022-08-01T08:33:14;0.00;;;0.00;;
10839;SDS011;5473;42.706;23.328;2022-08-01T08:35:41;0.00;;;0.00;;
10839;SDS011;5473;42.706;23.328;2022-08-01T08:38:08;0.00;;;0.00;;
10839;SDS011;5473;42.706;23.328;2022-08-01T08:40:35;0.00;;;0.00;;
10839;SDS011;5473;42.706;23.328;2022-08-01T08:43:04;0.00;;;0.00;;
10839;SDS011;5473;42.706;23.328;2022-08-01T08:45:33;0.10;;;0.10;;
10839;SDS011;5473;42.706;23.328;2022-08-01T08:48:00;0.00;;;0.00;;
10839;SDS011;5473;42.706;23.328;2022-08-01T08:50:28;0.00;;;0.00;;
10839;SDS011;5473;42.706;23.328;2022-08-01T08:52:55;0.00;;;0.00;;
10839;SDS011;5473;42.706;23.328;2022-08-01T08:55:22;0.00;;;0.00;;
10839;SDS011;5473;42.706;23.328;2022-08-01T08:57:49;0.00;;;0.00;;
10839;SDS011;5473;42.706;23.328;2022-08-01T09:00:18;0.00;;;0.00;;
10839;SDS011;5473;42.706;23.328;2022-08-01T09:02:46;0.00;;;0.00;;
10839;SDS011;5473;42.706;23.328;2022-08-01T09:05:15;0.00;;;0.00;;
10839;SDS011;5473;42.706;23.328;2022-08-01T09:07:43;0.00;;;0.00;;
10839;SDS011;5473;42.706;23.328;2022-08-01T09:10:10;0.00;;;0.00;;
10839;SDS011;5473;42.706;23.328;2022-08-01T09:12:37;0.00;;;0.00;;
10839;SDS011;5473;42.706;23.328;2022-08-01T09:15:04;0.00;;;0.00;;
10839;SDS011;5473;42.706;23.328;2022-08-01T09:17:39;0.00;;;0.00;;
10839;SDS011;5473;42.706;23.328;2022-08-01T09:20:08;0.00;;;0.00;;
10839;SDS011;5473;42.706;23.328;2022-08-01T09:22:49;0.00;;;0.00;;
10839;SDS011;5473;42.706;23.328;2022-08-01T09:25:17;0.00;;;0.00;;
10839;SDS011;5473;42.706;23.328;2022-08-01T09:27:43;0.00;;;0.00;;
10839;SDS011;5473;42.706;23.328;2022-08-01T09:30:11;0.00;;;0.00;;
10839;SDS011;5473;42.706;23.328;2022-08-01T09:32:55;0.00;;;0.00;;
10839;SDS011;5473;42.706;23.328;2022-08-01T09:35:24;0.00;;;0.00;;
10839;SDS011;5473;42.706;23.328;2022-08-01T09:37:56;0.00;;;0.00;;
10839;SDS011;5473;42.706;23.328;2022-08-01T09:40:48;0.00;;;0.00;;
10839;SDS011;5473;42.706;23.328;2022-08-01T09:43:17;0.00;;;0.00;;
10839;SDS011;5473;42.706;23.328;2022-08-01T09:45:44;0.00;;;0.00;;
10839;SDS011;5473;42.706;23.328;2022-08-01T09:48:12;0.00;;;0.00;;
10839;SDS011;5473;42.706;23.328;2022-08-01T09:50:43;0.00;;;0.00;;
10839;SDS011;5473;42.706;23.328;2022-08-01T09:53:10;0.00;;;0.00;;
10839;SDS011;5473;42.706;23.328;2022-08-01T09:55:39;0.00;;;0.00;;
10839;SDS011;5473;42.706;23.328;2022-08-01T09:58:06;0.00;;;0.00;;
10839;SDS011;5473;42.706;23.328;2022-08-01T10:00:34;0.00;;;0.00;;
10839;SDS011;5473;42.706;23.328;2022-08-01T10:03:17;0.00;;;0.00;;
10839;SDS011;5473;42.706;23.328;2022-08-01T10:05:47;0.00;;;0.00;;
10839;SDS011;5473;42.706;23.328;2022-08-01T10:08:15;0.00;;;0.00;;
10839;SDS011;5473;42.706;23.328;2022-08-01T10:10:42;0.00;;;0.00;;
10839;SDS011;5473;42.706;23.328;2022-08-01T10:13:31;0.00;;;0.00;;
10839;SDS011;5473;42.706;23.328;2022-08-01T10:15:58;0.00;;;0.00;;
10839;SDS011;5473;42.706;23.328;2022-08-01T10:18:27;0.00;;;0.00;;
10839;SDS011;5473;42.706;23.328;2022-08-01T10:20:58;0.00;;;0.00;;
10839;SDS011;5473;42.706;23.328;2022-08-01T10:23:25;0.00;;;0.00;;
10839;SDS011;5473;42.706;23.328;2022-08-01T10:25:53;0.00;;;0.00;;
10839;SDS011;5473;42.706;23.328;2022-08-01T10:28:21;0.00;;;0.00;;
10839;SDS011;5473;42.706;23.328;2022-08-01T10:30:51;0.00;;;0.00;;
10839;SDS011;5473;42.706;23.328;2022-08-01T10:33:18;0.00;;;0.00;;
10839;SDS011;5473;42.706;23.328;2022-08-01T10:35:48;0.00;;;0.00;;
10839;SDS011;5473;42.706;23.328;2022-08-01T10:38:16;0.00;;;0.00;;
10839;SDS011;5473;42.706;23.328;2022-08-01T10:40:43;0.00;;;0.00;;
10839;SDS011;5473;42.706;23.328;2022-08-01T10:43:11;0.00;;;0.00;;
10839;SDS011;5473;42.706;23.328;2022-08-01T10:45:39;0.00;;;0.00;;
10839;SDS011;5473;42.706;23.328;2022-08-01T10:48:09;0.00;;;0.00;;
10839;SDS011;5473;42.706;23.328;2022-08-01T10:50:45;0.00;;;0.00;;
10839;SDS011;5473;42.706;23.328;2022-08-01T10:53:16;0.00;;;0.00;;
10839;SDS011;5473;42.706;23.328;2022-08-01T10:55:45;0.00;;;0.00;;
10839;SDS011;5473;42.706;23.328;2022-08-01T10:58:12;0.00;;;0.00;;
10839;SDS011;5473;42.706;23.328;2022-08-01T11:00:39;0.00;;;0.00;;
10839;SDS011;5473;42.706;23.328;2022-08-01T11:03:06;0.00;;;0.00;;
10839;SDS011;5473;42.706;23.328;2022-08-01T11:05:33;0.00;;;0.00;;
10839;SDS011;5473;42.706;23.328;2022-08-01T11:08:03;0.00;;;0.00;;
10839;SDS011;5473;42.706;23.328;2022-08-01T11:10:38;0.00;;;0.00;;
10839;SDS011;5473;42.706;23.328;2022-08-01T11:13:05;0.00;;;0.00;;
10839;SDS011;5473;42.706;23.328;2022-08-01T11:15:33;0.00;;;0.00;;
10839;SDS011;5473;42.706;23.328;2022-08-01T11:18:01;0.00;;;0.00;;
10839;SDS011;5473;42.706;23.328;2022-08-01T11:20:31;0.00;;;0.00;;
10839;SDS011;5473;42.706;23.328;2022-08-01T11:31:43;0.00;;;0.00;;
10839;SDS011;5473;42.706;23.328;2022-08-01T11:34:11;0.00;;;0.00;;
10839;SDS011;5473;42.706;23.328;2022-08-01T11:36:38;0.00;;;0.00;;
10839;SDS011;5473;42.706;23.328;2022-08-01T11:39:11;0.00;;;0.00;;
10839;SDS011;5473;42.706;23.328;2022-08-01T11:41:42;0.00;;;0.00;;
10839;SDS011;5473;42.706;23.328;2022-08-01T11:44:11;0.00;;;0.00;;
10839;SDS011;5473;42.706;23.328;2022-08-01T11:46:53;0.00;;;0.00;;
10839;SDS011;5473;42.706;23.328;2022-08-01T11:49:26;0.00;;;0.00;;
10839;SDS011;5473;42.706;23.328;2022-08-01T11:51:58;0.00;;;0.00;;
10839;SDS011;5473;42.706;23.328;2022-08-01T11:54:27;0.00;;;0.00;;
10839;SDS011;5473;42.706;23.328;2022-08-01T11:56:57;0.00;;;0.00;;
10839;SDS011;5473;42.706;23.328;2022-08-01T11:59:25;0.00;;;0.00;;
10839;SDS011;5473;42.706;23.328;2022-08-01T12:01:52;0.00;;;0.00;;
10839;SDS011;5473;42.706;23.328;2022-08-01T12:04:19;0.00;;;0.00;;
10839;SDS011;5473;42.706;23.328;2022-08-01T12:06:46;0.00;;;0.00;;
10839;SDS011;5473;42.706;23.328;2022-08-01T12:09:16;0.00;;;0.00;;
10839;SDS011;5473;42.706;23.328;2022-08-01T12:11:44;0.00;;;0.00;;
10839;SDS011;5473;42.706;23.328;2022-08-01T12:14:19;0.00;;;0.00;;
10839;SDS011;5473;42.706;23.328;2022-08-01T12:16:51;0.00;;;0.00;;
10839;SDS011;5473;42.706;23.328;2022-08-01T12:19:19;0.00;;;0.00;;
10839;SDS011;5473;42.706;23.328;2022-08-01T12:22:09;0.00;;;0.00;;
10839;SDS011;5473;42.706;23.328;2022-08-01T12:24:38;0.00;;;0.00;;
10839;SDS011;5473;42.706;23.328;2022-08-01T12:27:07;0.00;;;0.00;;
10839;SDS011;5473;42.706;23.328;2022-08-01T12:29:37;0.00;;;0.00;;
10839;SDS011;5473;42.706;23.328;2022-08-01T12:32:19;0.00;;;0.00;;
10839;SDS011;5473;42.706;23.328;2022-08-01T12:34:49;0.00;;;0.00;;
10839;SDS011;5473;42.706;23.328;2022-08-01T12:37:16;0.00;;;0.00;;
10839;SDS011;5473;42.706;23.328;2022-08-01T12:43:08;0.00;;;0.00;;
